Time;durP1;ratioP1;P1;durP2;ratioP2;P2;SDS_P1;SDS_P2;PMS_P1;PMS_P2;Temp;Humidity;BMP_temperature;BMP_pressure;BME280_temperature;BME280_humidity;BME280_pressure;Samples;Min_cycle;Max_cycle;Signal;HPM_P1;HPM_P2
2022/09/27 00:01:59;;;;;;;8.63;8.23;;;;;;;9.51;100.00;95025.50;4976073;28;20709;-77
2022/09/27 00:04:25;;;;;;;7.73;7.33;;;;;;;9.52;100.00;95027.09;4958826;28;20593;-76
2022/09/27 00:06:50;;;;;;;7.90;7.50;;;;;;;9.48;100.00;95023.41;4975298;28;20256;-77
2022/09/27 00:09:16;;;;;;;8.47;8.03;;;;;;;9.56;100.00;95010.59;4975277;28;20283;-77
2022/09/27 00:11:41;;;;;;;8.47;7.93;;;;;;;9.47;100.00;95014.00;4974181;28;20609;-76
2022/09/27 00:14:09;;;;;;;8.77;8.33;;;;;;;9.50;100.00;95011.66;4974055;28;20559;-76
2022/09/27 00:16:36;;;;;;;6.97;6.57;;;;;;;9.52;100.00;95008.78;4974445;28;20192;-75
2022/09/27 00:19:10;;;;;;;7.20;6.83;;;;;;;9.47;100.00;95014.00;4973925;28;20219;-76
2022/09/27 00:21:36;;;;;;;7.20;6.80;;;;;;;9.47;100.00;95000.94;4959223;28;20191;-76
2022/09/27 00:24:02;;;;;;;8.27;7.77;;;;;;;9.45;100.00;94997.78;4975012;28;20188;-74
2022/09/27 00:26:28;;;;;;;7.50;7.20;;;;;;;9.42;100.00;94999.09;4974672;28;20199;-74
2022/09/27 00:28:53;;;;;;;8.20;7.80;;;;;;;9.40;100.00;94995.97;4977634;28;20267;-73
2022/09/27 00:31:29;;;;;;;7.83;7.50;;;;;;;9.33;100.00;94998.06;4961018;28;20263;-75
2022/09/27 00:33:57;;;;;;;7.80;7.43;;;;;;;9.25;100.00;94993.34;4977905;28;20303;-76
2022/09/27 00:36:24;;;;;;;7.17;6.77;;;;;;;9.39;100.00;94997.00;4978402;28;20292;-76
2022/09/27 00:38:50;;;;;;;8.33;7.57;;;;;;;9.31;100.00;94994.91;4978166;28;20192;-76
2022/09/27 00:41:22;;;;;;;7.53;7.23;;;;;;;9.37;100.00;94993.06;4978904;28;20205;-76
2022/09/27 00:43:57;;;;;;;6.97;6.67;;;;;;;9.39;100.00;94983.16;4979061;28;20180;-76
2022/09/27 00:46:34;;;;;;;6.60;6.20;;;;;;;9.35;100.00;94979.50;4977488;28;20184;-74
2022/09/27 00:49:21;;;;;;;7.47;7.07;;;;;;;9.43;100.00;94976.34;4976871;28;20627;-74
2022/09/27 00:51:52;;;;;;;8.03;7.33;;;;;;;9.37;100.00;94965.09;4977182;28;20259;-75
2022/09/27 00:54:19;;;;;;;6.13;5.73;;;;;;;9.35;100.00;94969.84;4976918;28;20556;-75
2022/09/27 00:56:45;;;;;;;7.63;7.23;;;;;;;9.26;100.00;94965.38;4976538;28;20188;-74
2022/09/27 00:59:19;;;;;;;6.97;6.57;;;;;;;9.36;100.00;94962.78;4977389;28;20538;-75
2022/09/27 01:01:44;;;;;;;5.77;5.47;;;;;;;9.30;100.00;94961.22;4938417;29;20177;-75
2022/09/27 01:04:13;;;;;;;6.57;6.27;;;;;;;9.38;100.00;94953.59;4970263;28;20276;-74
2022/09/27 01:06:39;;;;;;;6.53;6.23;;;;;;;9.46;100.00;94960.94;4976146;28;20247;-75
2022/09/27 01:09:08;;;;;;;6.13;5.83;;;;;;;9.37;100.00;94965.09;4976464;28;20225;-74
2022/09/27 01:12:09;;;;;;;6.80;6.50;;;;;;;9.30;100.00;94967.22;4976991;28;20185;-74
2022/09/27 01:14:50;;;;;;;5.37;5.17;;;;;;;9.31;100.00;94965.38;4976661;28;20184;-74
2022/09/27 01:17:27;;;;;;;5.03;4.73;;;;;;;9.31;100.00;94967.97;4977082;28;20267;-75
2022/09/27 01:20:14;;;;;;;5.90;5.40;;;;;;;9.42;100.00;94978.16;4976770;28;20294;-75
2022/09/27 01:22:49;;;;;;;5.87;5.57;;;;;;;9.46;100.00;94971.38;4976309;28;20189;-74
2022/09/27 01:25:33;;;;;;;5.37;5.17;;;;;;;9.30;100.00;94958.59;4976547;28;20581;-75
2022/09/27 01:28:26;;;;;;;5.97;5.67;;;;;;;9.30;100.00;94967.22;4976724;28;20230;-75
2022/09/27 01:31:06;;;;;;;5.97;5.57;;;;;;;9.42;100.00;94965.09;4976714;28;20184;-75
2022/09/27 01:33:58;;;;;;;5.40;5.10;;;;;;;9.45;100.00;94966.41;4976568;28;20268;-75
2022/09/27 01:36:44;;;;;;;5.53;5.10;;;;;;;9.35;100.00;94962.00;4976784;28;20634;-76
2022/09/27 01:39:15;;;;;;;5.27;4.97;;;;;;;9.34;100.00;94959.63;4959124;28;20264;-75
2022/09/27 01:41:52;;;;;;;6.43;6.03;;;;;;;9.43;100.00;94956.22;4977170;28;20180;-75
2022/09/27 01:44:33;;;;;;;5.57;5.37;;;;;;;9.34;100.00;94963.03;4976449;28;20733;-75
2022/09/27 01:47:04;;;;;;;6.77;6.37;;;;;;;9.43;100.00;94955.41;4960465;28;20173;-75
2022/09/27 01:49:55;;;;;;;6.57;6.17;;;;;;;9.43;100.00;94961.44;4976072;28;20188;-75
2022/09/27 01:52:28;;;;;;;6.47;6.17;;;;;;;9.41;100.00;94968.78;4975325;28;20200;-75
2022/09/27 01:54:57;;;;;;;6.57;6.27;;;;;;;9.53;100.00;94971.88;4974978;28;20298;-75
2022/09/27 01:57:29;;;;;;;7.90;7.50;;;;;;;9.58;100.00;94968.50;4975826;28;20236;-75
2022/09/27 02:00:05;;;;;;;7.63;7.13;;;;;;;9.60;100.00;94961.16;4975656;28;20558;-75
2022/09/27 02:02:35;;;;;;;8.23;7.83;;;;;;;9.67;100.00;94966.09;4975399;28;20203;-75
2022/09/27 02:05:03;;;;;;;6.83;6.53;;;;;;;9.56;100.00;94967.97;4975004;28;20279;-75
2022/09/27 02:07:38;;;;;;;7.57;7.17;;;;;;;9.56;100.00;94967.97;4975691;28;20649;-75
2022/09/27 02:10:11;;;;;;;6.23;5.93;;;;;;;9.64;100.00;94964.78;4975949;28;20176;-75
2022/09/27 02:12:48;;;;;;;6.83;6.33;;;;;;;9.60;100.00;94969.00;4976028;28;20181;-75
2022/09/27 02:15:14;;;;;;;6.90;6.60;;;;;;;9.56;100.00;94973.97;4958440;28;20180;-75
2022/09/27 02:18:06;;;;;;;6.30;6.00;;;;;;;9.58;100.00;94977.09;4975414;28;20268;-75
2022/09/27 02:20:38;;;;;;;6.13;5.53;;;;;;;9.74;100.00;94979.69;4973768;28;20303;-75
2022/09/27 02:23:13;;;;;;;6.40;6.10;;;;;;;9.75;100.00;94984.66;4975167;28;20677;-75
2022/09/27 02:25:48;;;;;;;7.03;6.73;;;;;;;9.70;100.00;94984.66;4976490;28;20181;-74
2022/09/27 02:28:34;;;;;;;8.47;8.07;;;;;;;9.67;100.00;94992.28;4975868;28;20188;-74
2022/09/27 02:30:59;;;;;;;8.73;8.33;;;;;;;9.65;100.00;94995.13;4951868;28;20267;-73
2022/09/27 02:33:48;;;;;;;8.77;8.37;;;;;;;9.60;100.00;94990.72;4974838;28;20757;-74
2022/09/27 02:36:14;;;;;;;7.90;7.60;;;;;;;9.59;100.00;95004.03;4975086;28;20646;-75
2022/09/27 02:38:40;;;;;;;8.43;8.03;;;;;;;9.49;100.00;94996.22;4980381;28;20181;-75
2022/09/27 02:41:17;;;;;;;12.10;11.53;;;;;;;9.42;100.00;95004.31;4979029;28;20203;-77
2022/09/27 02:43:46;;;;;;;11.57;10.87;;;;;;;9.38;100.00;94999.88;4978125;28;20184;-77
2022/09/27 02:46:30;;;;;;;10.40;9.90;;;;;;;9.38;100.00;95008.50;4977436;28;20193;-77
2022/09/27 02:49:15;;;;;;;10.03;9.43;;;;;;;9.27;100.00;95001.72;4964869;28;20307;-76
2022/09/27 02:51:57;;;;;;;11.30;10.70;;;;;;;9.22;100.00;95000.94;4975465;28;20614;-77
2022/09/27 02:54:41;;;;;;;10.50;9.90;;;;;;;9.12;100.00;95002.50;4974628;28;20246;-77
2022/09/27 02:57:15;;;;;;;6.77;6.47;;;;;;;9.10;100.00;95016.88;4976035;28;20227;-76
2022/09/27 02:59:54;;;;;;;4.40;4.20;;;;;;;9.08;100.00;95014.50;4958286;28;20680;-76
2022/09/27 03:02:26;;;;;;;4.97;4.77;;;;;;;8.93;100.00;95024.16;4962672;28;20189;-76
2022/09/27 03:05:01;;;;;;;4.63;4.43;;;;;;;8.92;100.00;95019.97;4976582;28;20188;-76
2022/09/27 03:07:27;;;;;;;4.43;4.13;;;;;;;8.89;100.00;95025.72;4977966;28;20326;-76
2022/09/27 03:09:53;;;;;;;4.40;4.20;;;;;;;8.89;100.00;95018.69;4977898;28;20550;-75
2022/09/27 03:12:24;;;;;;;5.67;5.40;;;;;;;8.85;100.00;95030.69;4975841;28;20192;-76
2022/09/27 03:14:51;;;;;;;6.20;5.97;;;;;;;8.71;100.00;95035.63;4957493;28;20187;-77
2022/09/27 03:17:17;;;;;;;5.53;5.20;;;;;;;8.76;100.00;95035.63;4974724;28;20197;-77
2022/09/27 03:19:42;;;;;;;5.57;5.10;;;;;;;8.72;100.00;95039.81;4957372;28;20236;-77
2022/09/27 03:22:08;;;;;;;5.50;5.30;;;;;;;8.72;100.00;95047.63;4974680;28;20613;-77
2022/09/27 03:24:33;;;;;;;5.60;5.40;;;;;;;8.77;100.00;95039.03;4974682;28;20549;-76
2022/09/27 03:26:59;;;;;;;8.60;7.90;;;;;;;8.76;100.00;95043.47;4957390;28;20252;-76
2022/09/27 03:29:24;;;;;;;7.27;6.77;;;;;;;8.75;100.00;95049.72;4974351;28;20189;-76
2022/09/27 03:31:49;;;;;;;6.47;6.03;;;;;;;8.74;100.00;95058.63;4973856;28;20180;-76
2022/09/27 03:34:15;;;;;;;6.77;6.47;;;;;;;8.81;100.00;95063.59;4973035;28;20228;-77
2022/09/27 03:36:40;;;;;;;7.90;7.50;;;;;;;8.77;100.00;95063.31;4974148;28;20684;-76
2022/09/27 03:39:06;;;;;;;8.20;7.70;;;;;;;8.79;100.00;95065.69;4974088;28;20224;-76
2022/09/27 03:41:31;;;;;;;9.80;9.10;;;;;;;8.82;100.00;95061.75;4973757;28;20204;-77
2022/09/27 03:43:58;;;;;;;8.70;8.20;;;;;;;8.81;100.00;95060.97;4973985;28;20189;-76
2022/09/27 03:46:24;;;;;;;10.10;9.50;;;;;;;8.81;100.00;95060.97;4974074;28;20188;-76
2022/09/27 03:48:49;;;;;;;9.67;9.20;;;;;;;8.75;100.00;95062.00;4956999;28;20192;-76
2022/09/27 03:51:15;;;;;;;9.57;9.07;;;;;;;8.78;100.00;95056.28;4973776;28;20180;-76
2022/09/27 03:53:41;;;;;;;11.80;11.20;;;;;;;8.71;100.00;95053.91;4974061;28;20271;-76
2022/09/27 03:56:07;;;;;;;12.27;11.57;;;;;;;8.77;100.00;95057.31;4956675;28;20180;-76
2022/09/27 03:58:33;;;;;;;10.63;10.00;;;;;;;8.64;100.00;95055.97;4973863;28;20641;-76
2022/09/27 04:00:58;;;;;;;11.40;10.70;;;;;;;8.65;100.00;95054.94;4974460;28;20227;-76
2022/09/27 04:03:25;;;;;;;10.53;9.63;;;;;;;8.71;100.00;95053.91;4978476;28;20192;-76
2022/09/27 04:05:54;;;;;;;9.87;9.23;;;;;;;8.76;100.00;95047.91;4960310;28;20323;-76
2022/09/27 04:08:21;;;;;;;7.57;7.03;;;;;;;8.69;100.00;95050.00;4977911;28;20244;-76
2022/09/27 04:10:46;;;;;;;7.97;7.43;;;;;;;8.82;100.00;95054.72;4978036;28;20661;-76
2022/09/27 04:13:12;;;;;;;8.23;7.73;;;;;;;8.78;100.00;95053.66;4960812;28;20363;-76
2022/09/27 04:15:38;;;;;;;7.60;6.97;;;;;;;8.78;100.00;95058.88;4960500;28;20185;-76
2022/09/27 04:18:04;;;;;;;7.80;7.20;;;;;;;8.93;100.00;95063.34;4977782;28;20209;-76
2022/09/27 04:20:29;;;;;;;8.40;7.83;;;;;;;8.85;100.00;95067.28;4960337;28;20204;-76
2022/09/27 04:22:54;;;;;;;8.30;7.57;;;;;;;8.78;100.00;95066.72;4977798;28;20608;-76
2022/09/27 04:25:20;;;;;;;7.67;6.70;;;;;;;8.85;100.00;95067.28;4977829;28;20191;-77
2022/09/27 04:27:45;;;;;;;8.07;7.57;;;;;;;8.89;100.00;95068.31;4977820;28;20268;-76
2022/09/27 04:30:12;;;;;;;9.23;8.53;;;;;;;8.92;100.00;95072.22;4960263;28;20581;-76
2022/09/27 04:32:42;;;;;;;9.43;8.63;;;;;;;8.81;100.00;95074.03;4977082;28;20321;-76
2022/09/27 04:37:53;;;;;;;10.10;9.40;;;;;;;8.93;100.00;95069.38;4978004;28;20251;-76
2022/09/27 04:40:21;;;;;;;10.17;9.13;;;;;;;8.86;100.00;95075.91;4977915;28;20200;-76
2022/09/27 04:42:46;;;;;;;9.70;8.93;;;;;;;8.92;100.00;95080.06;4978907;28;20185;-75
2022/09/27 04:45:12;;;;;;;9.23;8.50;;;;;;;8.97;100.00;95080.09;4978527;28;20197;-76
2022/09/27 04:47:42;;;;;;;10.43;9.50;;;;;;;8.92;100.00;95073.00;4978486;28;20208;-76
2022/09/27 04:50:08;;;;;;;10.30;9.30;;;;;;;8.71;100.00;95082.63;4977828;28;20185;-76
2022/09/27 04:52:33;;;;;;;9.73;9.13;;;;;;;8.71;100.00;95084.44;4977940;28;20554;-76
2022/09/27 04:54:58;;;;;;;8.93;8.23;;;;;;;8.83;100.00;95082.41;4977606;28;20181;-76
2022/09/27 04:57:24;;;;;;;8.77;8.07;;;;;;;8.93;100.00;95084.25;4977123;28;20584;-76
2022/09/27 04:59:50;;;;;;;8.80;7.80;;;;;;;8.87;100.00;95085.28;4976647;28;20612;-76
2022/09/27 05:02:16;;;;;;;7.73;7.13;;;;;;;9.05;100.00;95098.66;4976893;28;20641;-76
2022/09/27 05:04:41;;;;;;;8.23;7.50;;;;;;;8.85;100.00;95101.22;4976332;28;20223;-76
2022/09/27 05:07:06;;;;;;;8.10;7.67;;;;;;;9.01;100.00;95113.28;4976777;28;20216;-76
2022/09/27 05:09:32;;;;;;;7.50;6.73;;;;;;;8.91;100.00;95105.44;4959382;28;20279;-76
2022/09/27 05:11:57;;;;;;;6.17;5.67;;;;;;;8.94;100.00;95114.56;4976643;28;20201;-77
2022/09/27 05:14:23;;;;;;;7.07;6.57;;;;;;;8.92;100.00;95114.03;4977129;28;20195;-77
2022/09/27 05:16:49;;;;;;;7.20;6.50;;;;;;;8.97;100.00;95127.91;4976619;28;20197;-77
2022/09/27 05:19:15;;;;;;;6.23;5.60;;;;;;;9.05;100.00;95121.41;4976609;28;20235;-77
2022/09/27 05:21:42;;;;;;;6.40;5.90;;;;;;;8.94;100.00;95125.81;4977307;28;20271;-78
2022/09/27 05:24:07;;;;;;;5.63;5.23;;;;;;;8.94;100.00;95133.66;4976666;28;20177;-77
2022/09/27 05:26:32;;;;;;;6.37;5.87;;;;;;;9.03;100.00;95132.09;4976556;28;20195;-78
2022/09/27 05:28:58;;;;;;;5.17;4.77;;;;;;;8.82;100.00;95133.06;4976908;28;20184;-78
2022/09/27 05:31:25;;;;;;;5.83;5.43;;;;;;;8.84;100.00;95138.84;4976954;28;20259;-77
2022/09/27 05:33:51;;;;;;;5.83;5.43;;;;;;;8.92;100.00;95132.31;4959088;28;20602;-77
2022/09/27 05:36:17;;;;;;;6.23;4.73;;;;;;;8.85;100.00;95137.81;4976636;28;20189;-77
2022/09/27 05:38:42;;;;;;;7.53;5.53;;;;;;;8.99;100.00;95144.13;4976246;28;20284;-77
2022/09/27 05:41:08;;;;;;;5.50;5.03;;;;;;;8.91;100.00;95147.25;4976209;28;20211;-77
2022/09/27 05:43:35;;;;;;;6.00;5.60;;;;;;;8.88;100.00;95152.16;4976348;28;20204;-76
2022/09/27 05:46:00;;;;;;;5.93;5.57;;;;;;;8.89;100.00;95154.53;4963368;28;20184;-76
2022/09/27 05:48:27;;;;;;;5.23;4.87;;;;;;;8.89;100.00;95158.97;4975968;28;20184;-76
2022/09/27 05:50:52;;;;;;;5.07;4.77;;;;;;;8.79;100.00;95161.53;4976019;28;20761;-72
2022/09/27 05:53:18;;;;;;;6.10;5.60;;;;;;;8.74;100.00;95164.94;4976289;28;20283;-78
2022/09/27 05:55:43;;;;;;;6.43;6.03;;;;;;;8.73;100.00;95171.97;4979148;28;20544;-76
2022/09/27 05:58:09;;;;;;;6.70;6.37;;;;;;;8.70;100.00;95185.53;4970913;28;20188;-76
2022/09/27 06:00:35;;;;;;;7.03;6.53;;;;;;;8.78;100.00;95184.28;4987026;28;20240;-77
2022/09/27 06:03:03;;;;;;;5.23;4.90;;;;;;;8.74;100.00;95188.44;4971113;28;20232;-77
2022/09/27 06:05:30;;;;;;;5.93;5.47;;;;;;;8.61;100.00;95188.88;4983939;28;20197;-75
2022/09/27 06:08:02;;;;;;;5.27;4.80;;;;;;;8.64;100.00;95188.34;4964909;28;20196;-79
2022/09/27 06:10:29;;;;;;;5.63;5.23;;;;;;;8.73;100.00;95187.66;4976372;28;20276;-79
2022/09/27 06:13:01;;;;;;;5.10;4.70;;;;;;;8.70;100.00;95188.13;4975556;28;20191;-78
2022/09/27 06:15:27;;;;;;;5.20;4.80;;;;;;;8.72;100.00;95188.69;4977835;28;20192;-77
2022/09/27 06:17:53;;;;;;;4.57;4.37;;;;;;;8.76;100.00;95192.34;4976229;28;20173;-77
2022/09/27 06:20:18;;;;;;;5.30;4.90;;;;;;;8.74;100.00;95193.66;4975434;28;20632;-76
2022/09/27 06:22:45;;;;;;;5.60;5.20;;;;;;;8.73;100.00;95199.91;4975097;28;20185;-77
2022/09/27 06:25:10;;;;;;;6.53;4.97;;;;;;;8.79;100.00;95201.53;4974019;28;20259;-75
2022/09/27 06:27:36;;;;;;;4.90;4.50;;;;;;;8.85;100.00;95207.56;4975242;28;20272;-75
2022/09/27 06:30:03;;;;;;;7.20;6.60;;;;;;;8.71;100.00;95202.78;4974993;28;20641;-76
2022/09/27 06:32:28;;;;;;;4.10;3.90;;;;;;;8.80;100.00;95204.91;4974945;28;20308;-76
2022/09/27 06:34:54;;;;;;;4.20;3.90;;;;;;;8.84;100.00;95212.00;4974787;28;20297;-77
2022/09/27 06:37:19;;;;;;;4.87;4.23;;;;;;;8.88;100.00;95212.25;4975414;28;20208;-77
2022/09/27 06:39:44;;;;;;;6.77;4.10;;;;;;;8.96;100.00;95209.16;4975086;28;20196;-77
2022/09/27 06:42:10;;;;;;;4.83;4.50;;;;;;;9.08;100.00;95217.59;4975393;28;20261;-77
2022/09/27 06:44:35;;;;;;;4.97;4.67;;;;;;;9.07;100.00;95221.25;4975213;28;20188;-77
2022/09/27 06:47:00;;;;;;;6.70;6.10;;;;;;;9.13;100.00;95220.22;4974910;28;20212;-77
2022/09/27 06:49:26;;;;;;;8.57;8.03;;;;;;;9.11;100.00;95232.75;4975007;28;20647;-77
2022/09/27 06:51:52;;;;;;;6.50;6.10;;;;;;;9.08;100.00;95234.03;4974411;28;20188;-76
2022/09/27 06:54:18;;;;;;;9.97;9.47;;;;;;;9.08;100.00;95243.72;4974882;28;20189;-77
2022/09/27 06:56:46;;;;;;;11.97;11.37;;;;;;;9.08;100.00;95236.66;4957787;28;20723;-77
2022/09/27 07:01:55;;;;;;;5.10;4.77;;;;;;;9.27;100.00;95246.66;4975064;28;20200;-77
2022/09/27 07:04:21;;;;;;;4.87;4.67;;;;;;;9.42;100.00;95242.28;4974184;28;20200;-76
2022/09/27 07:06:46;;;;;;;6.53;6.17;;;;;;;9.50;100.00;95248.84;4974704;28;20648;-76
2022/09/27 07:09:13;;;;;;;54.13;51.30;;;;;;;9.67;100.00;95249.41;4974220;28;20245;-76
2022/09/27 07:11:39;;;;;;;5.83;5.43;;;;;;;9.48;100.00;95256.94;4974893;28;20181;-76
2022/09/27 07:14:05;;;;;;;5.87;5.57;;;;;;;9.53;100.00;95256.16;4974456;28;20240;-76
2022/09/27 07:16:30;;;;;;;6.67;6.37;;;;;;;9.53;100.00;95254.34;4974301;28;20235;-76
2022/09/27 07:18:56;;;;;;;7.80;7.40;;;;;;;9.42;100.00;95262.41;4957299;28;20522;-76
2022/09/27 07:21:22;;;;;;;12.67;11.97;;;;;;;9.60;100.00;95260.13;4974392;28;20666;-76
2022/09/27 07:23:48;;;;;;;8.33;7.83;;;;;;;9.59;100.00;95263.75;4956805;28;20196;-76
2022/09/27 07:26:14;;;;;;;8.20;7.80;;;;;;;9.58;100.00;95272.66;4974582;28;20231;-76
2022/09/27 07:28:40;;;;;;;6.93;6.63;;;;;;;9.77;100.00;95272.97;4974415;28;20584;-75
2022/09/27 07:31:06;;;;;;;5.73;5.47;;;;;;;9.95;100.00;95277.72;4973624;28;20704;-75
2022/09/27 07:33:32;;;;;;;4.37;4.17;;;;;;;10.38;100.00;95273.88;4973651;28;20602;-75
2022/09/27 07:35:57;;;;;;;4.17;4.07;;;;;;;10.30;100.00;95276.22;4974476;28;20177;-75
2022/09/27 07:38:23;;;;;;;4.80;4.60;;;;;;;10.22;100.00;95288.00;4974477;28;20271;-76
2022/09/27 07:40:48;;;;;;;7.83;7.43;;;;;;;10.19;100.00;95287.75;4973869;28;20236;-76
2022/09/27 07:43:14;;;;;;;6.97;6.67;;;;;;;10.01;100.00;95294.22;4973983;28;20192;-77
2022/09/27 07:45:40;;;;;;;4.80;4.60;;;;;;;9.88;100.00;95294.72;4974345;28;20203;-76
2022/09/27 07:48:12;;;;;;;7.17;6.87;;;;;;;9.93;100.00;95299.97;4974359;28;20181;-76
2022/09/27 07:50:37;;;;;;;4.30;4.10;;;;;;;9.98;100.00;95297.34;4973972;28;20203;-76
2022/09/27 07:53:04;;;;;;;5.07;4.87;;;;;;;10.04;100.00;95304.16;4973708;28;20188;-76
2022/09/27 07:55:30;;;;;;;6.73;6.43;;;;;;;9.98;100.00;95300.75;4973898;28;20203;-76
2022/09/27 07:58:07;;;;;;;5.80;5.50;;;;;;;9.97;100.00;95304.41;4973848;28;20537;-77
2022/09/27 08:00:33;;;;;;;5.40;5.20;;;;;;;9.94;100.00;95304.16;4973784;28;20251;-76
2022/09/27 08:03:03;;;;;;;7.47;7.17;;;;;;;9.70;100.00;95305.66;4974332;28;20212;-76
2022/09/27 08:05:29;;;;;;;8.47;7.90;;;;;;;9.86;100.00;95302.81;4974133;28;20196;-76
2022/09/27 08:07:57;;;;;;;7.80;7.50;;;;;;;9.84;100.00;95309.38;4974149;28;20193;-75
2022/09/27 08:10:26;;;;;;;7.40;7.00;;;;;;;9.99;100.00;95312.00;4973922;28;20189;-75
2022/09/27 08:12:51;;;;;;;8.70;8.30;;;;;;;10.15;100.00;95318.84;4974259;28;20216;-75
2022/09/27 08:15:17;;;;;;;5.90;5.50;;;;;;;10.22;100.00;95326.50;4973726;28;20204;-75
2022/09/27 08:17:42;;;;;;;8.07;7.47;;;;;;;10.20;100.00;95331.97;4956701;28;20189;-75
2022/09/27 08:20:08;;;;;;;6.97;6.57;;;;;;;10.29;100.00;95327.03;4973910;28;20236;-75
2022/09/27 08:22:42;;;;;;;7.17;6.87;;;;;;;10.33;100.00;95330.69;4956910;28;20181;-75
2022/09/27 08:25:08;;;;;;;6.90;6.60;;;;;;;10.28;100.00;95331.47;4973921;28;20596;-75
2022/09/27 08:27:33;;;;;;;5.47;5.27;;;;;;;10.39;100.00;95337.50;4973641;28;20235;-75
2022/09/27 08:29:59;;;;;;;10.17;9.70;;;;;;;10.59;100.00;95336.75;4973333;28;20279;-75
2022/09/27 08:32:26;;;;;;;11.43;10.90;;;;;;;10.37;100.00;95337.75;4973424;28;20618;-75
2022/09/27 08:34:52;;;;;;;11.63;11.10;;;;;;;10.33;100.00;95341.16;4973369;28;20646;-75
2022/09/27 08:37:17;;;;;;;12.57;12.00;;;;;;;10.40;100.00;95347.72;4973308;28;20228;-75
2022/09/27 08:39:42;;;;;;;14.03;13.23;;;;;;;10.40;100.00;95349.56;4955785;28;20196;-75
2022/09/27 08:42:23;;;;;;;6.77;6.47;;;;;;;10.35;98.02;95347.72;4973493;28;20185;-75
2022/09/27 08:45:07;;;;;;;5.30;5.00;;;;;;;10.39;97.78;95361.09;4973659;28;20212;-75
2022/09/27 08:47:36;;;;;;;8.10;7.57;;;;;;;10.56;95.97;95352.97;4974970;28;20219;-75
2022/09/27 08:50:05;;;;;;;10.97;10.27;;;;;;;10.39;96.40;95358.47;4976838;28;20184;-75
2022/09/27 08:52:54;;;;;;;9.07;8.30;;;;;;;10.30;95.84;95360.81;4976988;28;20557;-74
2022/09/27 08:55:29;;;;;;;9.83;9.27;;;;;;;10.19;97.19;95358.44;4976968;28;20576;-75
2022/09/27 08:57:57;;;;;;;10.50;9.93;;;;;;;10.28;97.40;95367.34;4976985;28;20172;-75
2022/09/27 09:00:23;;;;;;;13.17;12.47;;;;;;;10.16;97.15;95358.91;4976728;28;20212;-75
2022/09/27 09:02:48;;;;;;;12.97;12.33;;;;;;;10.10;96.70;95362.56;4975976;28;20201;-75
2022/09/27 09:05:26;;;;;;;13.07;12.47;;;;;;;10.22;95.63;95356.09;4984312;28;20208;-75
2022/09/27 09:08:30;;;;;;;11.53;11.03;;;;;;;10.53;92.95;95374.47;4967742;28;20201;-76
2022/09/27 09:13:51;;;;;;;21.27;20.20;;;;;;;11.06;93.73;95363.44;4976659;28;20597;-76
2022/09/27 09:16:27;;;;;;;9.90;9.47;;;;;;;11.33;90.56;95367.59;4976421;28;20184;-75
2022/09/27 09:19:39;;;;;;;6.07;5.77;;;;;;;11.50;89.10;95371.50;4976462;28;20609;-75
2022/09/27 09:22:39;;;;;;;14.00;13.27;;;;;;;11.62;88.41;95368.59;4976850;28;20184;-77
2022/09/27 09:25:19;;;;;;;8.47;8.00;;;;;;;11.68;86.48;95359.63;4976790;28;20180;-77
2022/09/27 09:28:02;;;;;;;6.27;5.87;;;;;;;11.76;85.91;95347.84;4976226;28;20196;-76
2022/09/27 09:30:46;;;;;;;9.37;8.93;;;;;;;11.87;82.80;95358.00;4976092;28;20648;-75
2022/09/27 09:33:14;;;;;;;13.03;12.33;;;;;;;12.10;82.77;95351.34;4975891;28;20280;-74
2022/09/27 09:35:47;;;;;;;15.67;14.90;;;;;;;11.89;81.51;95345.41;4976513;28;20181;-76
2022/09/27 09:38:23;;;;;;;21.87;20.60;;;;;;;11.77;81.04;95350.19;4976814;28;20181;-75
2022/09/27 09:41:02;;;;;;;20.30;19.33;;;;;;;11.68;81.36;95357.00;4976336;28;20231;-76
2022/09/27 09:43:49;;;;;;;19.90;18.87;;;;;;;12.08;80.71;95356.88;4959155;28;20186;-75
2022/09/27 09:46:30;;;;;;;16.90;16.03;;;;;;;12.32;79.25;95348.31;4976363;28;20177;-76
2022/09/27 09:49:28;;;;;;;21.87;20.63;;;;;;;12.07;76.02;95349.25;4959429;28;20224;-76
2022/09/27 09:52:10;;;;;;;15.60;14.77;;;;;;;12.10;77.31;95356.59;4976531;28;20649;-75
2022/09/27 09:55:05;;;;;;;24.60;23.30;;;;;;;11.93;77.34;95346.44;4976717;28;20239;-75
2022/09/27 09:57:30;;;;;;;8.03;7.63;;;;;;;12.36;78.36;95357.25;4976378;28;20173;-76
2022/09/27 10:00:13;;;;;;;27.07;25.53;;;;;;;12.65;75.46;95352.81;4975384;28;20213;-75
2022/09/27 10:02:41;;;;;;;85.53;80.57;;;;;;;13.00;71.95;95346.50;4976450;28;20185;-75
2022/09/27 10:05:12;;;;;;;29.67;28.13;;;;;;;13.44;69.82;95335.03;4975989;28;20188;-75
2022/09/27 10:07:38;;;;;;;22.17;20.93;;;;;;;13.32;68.40;95340.69;4958916;28;20227;-75
2022/09/27 10:10:06;;;;;;;18.10;17.17;;;;;;;13.11;68.08;95341.91;4975852;28;20247;-76
2022/09/27 10:12:32;;;;;;;24.27;22.93;;;;;;;12.84;69.16;95335.31;4976048;28;20180;-77
2022/09/27 10:15:01;;;;;;;31.57;29.80;;;;;;;13.20;69.63;95332.41;4975995;28;20184;-76
2022/09/27 10:17:41;;;;;;;22.50;21.13;;;;;;;13.40;68.39;95328.78;4976101;28;20185;-75
2022/09/27 10:20:18;;;;;;;43.83;41.47;;;;;;;13.81;68.69;95331.75;4960967;28;20232;-76
2022/09/27 10:22:53;;;;;;;90.00;85.43;;;;;;;13.83;65.60;95332.22;4974857;28;20244;-76
2022/09/27 10:25:18;;;;;;;44.30;41.93;;;;;;;14.00;63.80;95335.16;4976159;28;20219;-75
2022/09/27 10:27:47;;;;;;;73.20;69.43;;;;;;;13.83;63.87;95333.00;4975374;28;20287;-77
2022/09/27 10:30:22;;;;;;;41.90;39.63;;;;;;;13.48;65.44;95341.34;4958061;28;20224;-76
2022/09/27 10:32:52;;;;;;;33.53;31.83;;;;;;;13.20;65.86;95341.09;4957335;28;20589;-76
2022/09/27 10:35:19;;;;;;;72.07;68.27;;;;;;;13.14;67.24;95344.84;4975756;28;20561;-76
2022/09/27 10:37:44;;;;;;;56.20;53.27;;;;;;;12.65;69.31;95339.66;4975309;28;20223;-77
2022/09/27 10:40:32;;;;;;;159.80;151.63;;;;;;;12.34;70.22;95336.50;4957884;28;20232;-76
2022/09/27 10:42:58;;;;;;;128.63;121.97;;;;;;;12.29;70.27;95347.03;4975188;28;20181;-76
2022/09/27 10:45:26;;;;;;;56.57;53.60;;;;;;;12.42;70.09;95341.19;4975109;28;20203;-75
2022/09/27 10:47:51;;;;;;;84.23;79.73;;;;;;;12.92;68.48;95336.59;4975346;28;20204;-76
2022/09/27 10:50:24;;;;;;;64.07;60.60;;;;;;;13.04;67.76;95328.34;4957428;28;20224;-75
2022/09/27 10:53:03;;;;;;;13.53;12.83;;;;;;;12.78;68.71;95333.78;4975429;28;20187;-74
2022/09/27 10:55:33;;;;;;;28.60;26.90;;;;;;;12.98;67.48;95319.69;4975585;28;20186;-75
2022/09/27 10:58:00;;;;;;;54.20;51.23;;;;;;;13.22;67.20;95320.53;4974389;28;20263;-75
2022/09/27 11:00:28;;;;;;;22.13;20.97;;;;;;;13.13;68.60;95313.53;4974445;28;20358;-75
2022/09/27 11:03:02;;;;;;;22.17;20.87;;;;;;;13.57;68.13;95318.59;4973765;28;20294;-75
2022/09/27 11:05:35;;;;;;;36.57;34.60;;;;;;;13.46;68.29;95310.03;4975142;28;20173;-75
2022/09/27 11:08:22;;;;;;;39.77;37.63;;;;;;;13.51;68.15;95315.22;4975475;28;20177;-75
2022/09/27 11:11:18;;;;;;;21.53;20.30;;;;;;;13.33;70.00;95302.78;4974378;28;20251;-74
2022/09/27 11:13:56;;;;;;;32.00;30.23;;;;;;;13.06;70.18;95303.31;4971308;28;20275;-72
2022/09/27 11:16:47;;;;;;;86.07;81.57;;;;;;;13.31;69.23;95295.19;4974949;28;20164;-75
2022/09/27 11:19:22;;;;;;;16.70;15.77;;;;;;;13.42;67.78;95297.72;4976250;28;20645;-75
2022/09/27 11:22:12;;;;;;;29.87;28.17;;;;;;;13.73;67.43;95298.91;4975424;28;20196;-76
2022/09/27 11:24:56;;;;;;;24.33;23.00;;;;;;;13.86;67.26;95298.22;4972058;28;20216;-75
2022/09/27 11:27:46;;;;;;;73.33;69.63;;;;;;;13.93;65.55;95300.50;4971198;28;20178;-75
2022/09/27 11:30:50;;;;;;;29.80;28.03;;;;;;;13.50;65.53;95299.72;4968398;28;20611;-75
2022/09/27 11:33:53;;;;;;;44.13;41.83;;;;;;;13.40;65.32;95289.28;4975768;28;20303;-75
2022/09/27 11:36:59;;;;;;;24.13;22.70;;;;;;;13.46;63.84;95278.44;4957530;29;20185;-75
2022/09/27 11:39:40;;;;;;;26.13;24.83;;;;;;;13.51;64.07;95280.22;4957757;29;20192;-75
2022/09/27 11:42:13;;;;;;;27.73;26.33;;;;;;;13.29;65.86;95281.53;4956296;29;20182;-74
2022/09/27 11:45:12;;;;;;;36.63;34.63;;;;;;;13.75;66.12;95286.25;4938436;29;20216;-73
2022/09/27 11:47:52;;;;;;;18.10;17.13;;;;;;;13.49;65.71;95277.06;4966279;28;20215;-75
2022/09/27 11:50:24;;;;;;;41.67;39.43;;;;;;;13.23;66.99;95279.22;4971936;28;20185;-74
2022/09/27 11:53:33;;;;;;;36.23;34.40;;;;;;;13.17;67.16;95285.59;4973592;28;20189;-74
2022/09/27 11:56:30;;;;;;;71.13;67.60;;;;;;;12.99;69.05;95288.91;4867734;29;20195;-74
2022/09/27 11:59:05;;;;;;;77.23;73.37;;;;;;;13.68;68.14;95281.31;4868716;29;20271;-74